WESTPORT MEDIA Westport In The Media

Enter your "Place, State", US Zip Code or ICAO:  

Nassau Airport, Bahamas

 Lat: 25.05N, Lon: 77.47W
ICAO Used: MYNN
Current Conditions
Updated: 1:00 AM GMT-5 SAT NOV 1 2014
Sun & Moon Information
Fair
Fair
Temp: 26°C
Humidity: 83%
Wind Speed: WSW 10 MPH
Barometer: 1010 mb
Dewpoint: 23°C
Heat Index: 27°C
Wind Chill: 26°C
Civil Twilight: 5:52 AM GMT-5 Moon Phase:
Waxing Gibbous Moon
Sunrise: 6:16 AM GMT-5
Sunset: 5:29 PM GMT-5
Civil Twilight: 5:52 PM GMT-5
Forecast for Nassau Airport, Bahamas:
(Forecast based on TAF for )
0700 AM GMT-5 SAT NOV 01 2014
  
MORNING AFTERNOON EVENING OVERNIGHT
Showers Chance
Of
Showers
Chance
Of
Showers
Chance
Of
Showers
ZoneCast:
Dated: 0700 AM GMT-5 SAT NOV 01 2014
Morning...Changing to showers and partly cloudy skies with winds from the westnorthwest at 18 mph.

Afternoon...Partly cloudy and showers with winds from the westnorthwest at 18 mph.

Evening...Partly cloudy and showers with winds from the westnorthwest at 18 mph.

Overnight...Partly cloudy and showers with winds from the westnorthwest at 18 mph.

Original Encoded TAF:
Dated: 0700 AM GMT-5 SAT NOV 01 2014
MYNN 312140Z 0100/0200 28010KT 9999 SCT020 
     FM011200 29016KT 9999 VCSH SCT025 SCT050